Kanavis, Iran
Current Conditions -  °F | °C
As of 6:50 AM on Thursday 23 Oct 2014 (Local Time) from OIMM Reporting Station
Moderate Fog Moderate Fog  
Wind Chill: 42°   Ceiling: Unl
Heat Index: 45°   Visibility: 0.06mi
Dew Point: 45°   Wind: 5mph
Humidity: 100%   Direction: 300°WNW
Pressure: 30.15"   Gusts: NA
Location:  36.27°N, 59.89°E
Report Text: OIMM 230250Z 30004KT 0100 FG SKC 07/07 Q1021 A3016
Loading
Personal Weather Stations






























Interactive Weather Map
Tropical Storm Tracking
New forecast layout! Learn more

10-Day Weather Forecast

Advertisements
Track Severe Weather on mobile